Canehill, Arkansas
Current Conditions -  °F | °C
As of 6:53 AM on Sunday 23 Nov 2014 (Local Time) from KFYV Reporting Station
Broken Clouds Broken Clouds  
Wind Chill: 57°   Ceiling: 1500
Heat Index: 57°   Visibility: 10mi
Dew Point: 54°   Wind: 9mph
Humidity: 89%   Direction: 180°S
Pressure: 29.57"   Gusts: NA
Location:  35.91°N, 94.4°W
Report Text: KFYV 231253Z 18008KT 10SM BKN015 BKN022 14/12 A2957 RMK AO2 SLP009 T01390122 $
Loading
Personal Weather Stations






























Interactive Weather Map New forecast layout! Learn more

10-Day Weather Forecast

Advertisements
Track Severe Weather on mobile